createdAt,value
2019-03-27T00:01:35.216Z,99.90
2019-03-27T00:04:23.628Z,99.90
2019-03-27T00:06:53.094Z,99.90
2019-03-27T00:09:22.456Z,99.90
2019-03-27T00:11:51.924Z,99.90
2019-03-27T00:14:21.321Z,99.90
2019-03-27T00:16:50.720Z,99.90
2019-03-27T00:19:20.172Z,99.90
2019-03-27T00:21:49.636Z,99.90
2019-03-27T00:24:19.089Z,99.90
2019-03-27T00:26:48.492Z,99.90
2019-03-27T00:29:17.972Z,99.90
2019-03-27T00:31:47.392Z,99.90
2019-03-27T00:34:19.840Z,99.90
2019-03-27T00:36:49.217Z,99.90
2019-03-27T00:39:18.613Z,99.90
2019-03-27T00:41:48.064Z,99.90
2019-03-27T00:44:17.455Z,99.90
2019-03-27T00:46:46.923Z,99.90
2019-03-27T00:49:16.304Z,99.90
2019-03-27T00:51:45.713Z,99.90
2019-03-27T00:54:15.147Z,99.90
2019-03-27T00:56:44.704Z,99.90
2019-03-27T00:59:14.184Z,99.90
2019-03-27T01:01:43.656Z,99.90
2019-03-27T01:04:13.200Z,99.90
2019-03-27T01:06:42.617Z,99.90
2019-03-27T01:09:12.003Z,99.90
2019-03-27T01:11:41.408Z,99.90
2019-03-27T01:14:10.963Z,99.90
2019-03-27T01:16:40.347Z,99.90
2019-03-27T01:19:09.732Z,99.90
2019-03-27T01:21:39.130Z,99.90
2019-03-27T01:24:08.518Z,99.90
2019-03-27T01:26:38.055Z,99.90
2019-03-27T01:29:07.639Z,99.90
2019-03-27T01:31:37.097Z,99.90
2019-03-27T01:34:06.569Z,99.90
2019-03-27T01:36:36.012Z,99.90
2019-03-27T01:39:07.133Z,99.90
2019-03-27T01:41:36.513Z,99.90
2019-03-27T01:44:06.070Z,99.90
2019-03-27T01:46:35.533Z,99.90
2019-03-27T01:49:05.029Z,99.90
2019-03-27T01:51:34.421Z,99.90
2019-03-27T01:54:03.907Z,99.90
2019-03-27T01:56:33.300Z,99.90
2019-03-27T01:59:02.708Z,99.90
2019-03-27T02:01:32.223Z,99.90
2019-03-27T02:04:01.740Z,99.90
2019-03-27T02:06:31.293Z,99.90
2019-03-27T02:09:00.698Z,99.90
2019-03-27T02:11:30.174Z,99.90
2019-03-27T02:13:59.644Z,99.90
2019-03-27T02:16:29.021Z,99.90
2019-03-27T02:18:58.795Z,99.90
2019-03-27T02:21:28.280Z,99.90
2019-03-27T02:23:57.668Z,99.90
2019-03-27T02:26:27.142Z,99.90
2019-03-27T02:28:56.517Z,99.90
2019-03-27T02:31:25.917Z,99.90
2019-03-27T02:33:55.430Z,99.90
2019-03-27T02:36:24.822Z,99.90
2019-03-27T02:38:54.192Z,99.90
2019-03-27T02:41:23.622Z,99.90
2019-03-27T02:43:53.080Z,99.90
2019-03-27T02:46:25.192Z,99.90
2019-03-27T02:48:53.680Z,99.90
2019-03-27T02:51:23.209Z,99.90
2019-03-27T02:53:52.748Z,99.90
2019-03-27T02:56:22.147Z,99.90
2019-03-27T02:58:51.680Z,99.90
2019-03-27T03:01:21.140Z,99.90
2019-03-27T03:03:50.601Z,99.90
2019-03-27T03:06:20.102Z,99.90
2019-03-27T03:08:49.569Z,99.90
2019-03-27T03:11:19.029Z,99.90
2019-03-27T03:13:48.493Z,99.90
2019-03-27T03:16:17.955Z,99.90
2019-03-27T03:18:47.365Z,99.90
2019-03-27T03:21:16.756Z,99.90
2019-03-27T03:23:46.136Z,99.90
2019-03-27T03:26:15.690Z,99.90
2019-03-27T03:28:45.065Z,99.90
2019-03-27T03:31:14.542Z,99.90
2019-03-27T03:33:43.996Z,99.90
2019-03-27T03:36:13.453Z,99.90
2019-03-27T03:38:42.918Z,99.90
2019-03-27T03:41:12.433Z,99.90
2019-03-27T03:43:41.895Z,99.90
2019-03-27T03:46:11.437Z,99.90
2019-03-27T03:48:40.814Z,99.90
2019-03-27T03:51:10.642Z,99.90
2019-03-27T03:53:40.213Z,99.90
2019-03-27T03:56:10.893Z,99.90
2019-03-27T03:58:43.028Z,99.90
2019-03-27T04:01:12.824Z,99.90
2019-03-27T04:03:44.803Z,99.90
2019-03-27T04:06:14.268Z,99.90
2019-03-27T04:08:43.746Z,99.90
2019-03-27T04:11:13.214Z,99.90
2019-03-27T04:13:43.791Z,99.90
2019-03-27T04:16:13.198Z,99.90
2019-03-27T04:18:42.626Z,99.90
2019-03-27T04:21:12.025Z,99.90
2019-03-27T04:23:41.513Z,99.90
2019-03-27T04:26:11.192Z,99.90
2019-03-27T04:28:40.653Z,99.90
2019-03-27T04:31:10.127Z,99.90
2019-03-27T04:33:39.572Z,99.90
2019-03-27T04:36:09.037Z,99.90
2019-03-27T04:38:38.540Z,99.90
2019-03-27T04:41:08.080Z,99.90
2019-03-27T04:43:37.529Z,99.90
2019-03-27T04:46:07.063Z,99.90
2019-03-27T04:48:36.465Z,99.90
2019-03-27T04:51:06.006Z,99.90
2019-03-27T04:53:35.439Z,99.90
2019-03-27T04:56:04.988Z,99.90
2019-03-27T04:58:34.476Z,99.90
2019-03-27T05:01:03.933Z,99.90
2019-03-27T05:03:33.408Z,99.90
2019-03-27T05:06:02.871Z,99.90
2019-03-27T05:08:32.348Z,99.90
2019-03-27T05:11:01.736Z,99.90
2019-03-27T05:13:31.165Z,99.90
2019-03-27T05:16:00.715Z,99.90
2019-03-27T05:18:30.168Z,99.90
2019-03-27T05:20:59.928Z,99.90
2019-03-27T05:23:29.312Z,99.90
2019-03-27T05:25:58.725Z,99.90
2019-03-27T05:28:28.101Z,99.90
2019-03-27T05:30:57.500Z,99.90
2019-03-27T05:33:26.868Z,99.90
2019-03-27T05:35:56.263Z,99.90
2019-03-27T05:38:25.661Z,99.90
2019-03-27T05:40:55.053Z,99.90
2019-03-27T05:43:24.996Z,99.90
2019-03-27T05:45:54.423Z,99.90
2019-03-27T05:48:23.922Z,99.90
2019-03-27T05:50:53.402Z,99.90
2019-03-27T05:53:22.824Z,99.90
2019-03-27T05:55:52.211Z,99.90
2019-03-27T05:58:21.662Z,99.90
2019-03-27T06:00:51.068Z,99.90
2019-03-27T06:03:20.441Z,99.90
2019-03-27T06:05:49.836Z,99.90
2019-03-27T06:08:19.284Z,99.90
2019-03-27T06:10:48.718Z,99.90
2019-03-27T06:13:18.256Z,99.90
2019-03-27T06:15:47.781Z,99.90
2019-03-27T06:18:17.205Z,99.90
2019-03-27T06:20:46.701Z,99.90
2019-03-27T06:23:16.108Z,99.90
2019-03-27T06:25:45.597Z,99.90
2019-03-27T06:28:15.020Z,99.90
2019-03-27T06:30:45.199Z,99.90
2019-03-27T06:33:14.615Z,99.90
2019-03-27T06:35:44.045Z,99.90
2019-03-27T06:38:13.691Z,99.90
2019-03-27T06:40:43.284Z,99.90
2019-03-27T06:43:17.361Z,99.90
2019-03-27T06:45:47.916Z,99.90
2019-03-27T06:48:26.087Z,99.90
2019-03-27T06:50:48.403Z,99.90
2019-03-27T06:53:17.819Z,99.90
2019-03-27T06:55:47.196Z,99.90
2019-03-27T06:58:16.764Z,99.90
2019-03-27T07:00:46.183Z,99.90
2019-03-27T07:03:15.625Z,99.90
2019-03-27T07:05:45.272Z,99.90
2019-03-27T07:08:14.781Z,99.90
2019-03-27T07:10:44.168Z,99.90
2019-03-27T07:13:13.699Z,99.90
2019-03-27T07:15:43.177Z,99.90
2019-03-27T07:18:12.568Z,99.90
2019-03-27T07:20:41.968Z,99.90
2019-03-27T07:23:11.483Z,99.90
2019-03-27T07:25:40.975Z,99.90
2019-03-27T07:28:10.441Z,99.90
2019-03-27T07:30:39.848Z,99.90
2019-03-27T07:33:09.320Z,99.90
2019-03-27T07:35:38.793Z,99.90
2019-03-27T07:38:08.289Z,99.90
2019-03-27T07:40:37.782Z,99.90
2019-03-27T07:43:07.237Z,99.90
2019-03-27T07:45:36.631Z,99.90
2019-03-27T07:48:06.105Z,99.90
2019-03-27T07:50:35.673Z,99.90
2019-03-27T07:53:05.358Z,99.90
2019-03-27T07:55:35.027Z,99.90
2019-03-27T07:58:04.566Z,99.90
2019-03-27T08:00:34.026Z,99.90
2019-03-27T08:03:04.094Z,99.90
2019-03-27T08:05:33.579Z,99.90
2019-03-27T08:08:03.100Z,99.90
2019-03-27T08:10:32.483Z,99.90
2019-03-27T08:13:01.928Z,99.90
2019-03-27T08:15:31.488Z,99.90
2019-03-27T08:18:00.831Z,99.90
2019-03-27T08:20:30.293Z,99.90
2019-03-27T08:22:59.800Z,99.90
2019-03-27T08:25:29.165Z,99.90
2019-03-27T08:27:58.584Z,99.90
2019-03-27T08:30:28.060Z,99.90
2019-03-27T08:32:57.524Z,99.90
2019-03-27T08:35:26.986Z,99.90
2019-03-27T08:37:56.635Z,99.90
2019-03-27T08:40:26.012Z,99.90
2019-03-27T08:42:55.526Z,99.90
2019-03-27T08:45:25.017Z,99.90
2019-03-27T08:47:54.469Z,99.90
2019-03-27T08:50:23.961Z,99.90
2019-03-27T08:52:54.687Z,99.90
2019-03-27T08:55:24.082Z,99.90
2019-03-27T08:57:53.536Z,99.90
2019-03-27T09:00:48.008Z,99.90
2019-03-27T09:03:18.168Z,99.90
2019-03-27T09:05:48.207Z,99.90
2019-03-27T09:08:17.708Z,99.90
2019-03-27T09:10:47.269Z,99.90
2019-03-27T09:13:16.895Z,99.90
2019-03-27T09:15:46.376Z,99.90
2019-03-27T09:18:16.999Z,99.90
2019-03-27T09:20:46.727Z,99.90
2019-03-27T09:23:16.184Z,99.90
2019-03-27T09:25:45.593Z,99.90
2019-03-27T09:28:15.053Z,99.90
2019-03-27T09:30:44.436Z,99.90
2019-03-27T09:33:13.903Z,99.90
2019-03-27T09:35:43.405Z,99.90
2019-03-27T09:38:13.939Z,99.90
2019-03-27T09:40:43.497Z,99.90
2019-03-27T09:44:45.603Z,99.90
2019-03-27T09:47:15.142Z,99.90
2019-03-27T09:49:49.804Z,99.90
2019-03-27T09:52:18.933Z,99.90
2019-03-27T09:54:48.463Z,99.90
2019-03-27T09:57:17.889Z,99.90
2019-03-27T09:59:47.490Z,99.90
2019-03-27T10:02:16.927Z,99.90
2019-03-27T10:04:46.448Z,99.90
2019-03-27T10:07:15.982Z,99.90
2019-03-27T10:09:45.513Z,99.90
2019-03-27T10:12:15.312Z,99.90
2019-03-27T10:14:47.430Z,99.90
2019-03-27T10:17:16.348Z,99.90
2019-03-27T10:19:45.901Z,99.90
2019-03-27T10:22:15.551Z,99.90
2019-03-27T10:24:45.052Z,99.90
2019-03-27T10:27:19.537Z,99.90
2019-03-27T10:29:52.750Z,99.90
2019-03-27T10:32:22.593Z,99.20
2019-03-27T10:34:52.462Z,99.00
2019-03-27T10:37:21.994Z,98.20
2019-03-27T10:39:55.859Z,99.90
2019-03-27T10:42:29.015Z,99.10
2019-03-27T10:44:59.285Z,97.90
2019-03-27T10:47:28.823Z,96.90
2019-03-27T10:49:58.274Z,97.20
2019-03-27T10:52:27.818Z,99.50
2019-03-27T10:54:59.517Z,99.90
2019-03-27T10:57:28.996Z,97.20
2019-03-27T10:59:58.617Z,94.70
2019-03-27T11:02:28.772Z,94.00
2019-03-27T11:04:58.508Z,91.50
2019-03-27T11:07:27.984Z,88.30
2019-03-27T11:09:57.587Z,85.30
2019-03-27T11:12:27.578Z,85.50
2019-03-27T11:14:57.263Z,85.40
2019-03-27T11:17:26.831Z,85.70
2019-03-27T11:19:56.330Z,89.80
2019-03-27T11:22:26.132Z,87.10
2019-03-27T11:24:55.970Z,92.50
2019-03-27T11:27:25.668Z,97.20
2019-03-27T11:29:55.129Z,99.90
2019-03-27T11:32:24.937Z,99.90
2019-03-27T11:34:54.548Z,99.90
2019-03-27T11:37:24.252Z,99.90
2019-03-27T11:39:53.969Z,99.90
2019-03-27T11:42:24.940Z,99.90
2019-03-27T11:44:56.083Z,99.90
2019-03-27T11:47:26.171Z,99.90
2019-03-27T11:49:55.596Z,99.90
2019-03-27T11:52:25.140Z,99.90
2019-03-27T11:54:54.668Z,99.90
2019-03-27T11:57:24.185Z,99.90
2019-03-27T11:59:54.450Z,99.90
2019-03-27T12:02:24.679Z,99.90
2019-03-27T12:04:54.101Z,99.90
2019-03-27T12:07:23.799Z,99.90
2019-03-27T12:09:53.747Z,99.90
2019-03-27T12:12:31.779Z,99.90
2019-03-27T12:15:01.281Z,99.90
2019-03-27T12:17:32.841Z,99.90
2019-03-27T12:20:03.925Z,99.90
2019-03-27T12:22:33.405Z,99.90
2019-03-27T12:25:04.383Z,99.90
2019-03-27T12:27:33.901Z,98.30
2019-03-27T12:30:03.469Z,93.90
2019-03-27T12:32:32.960Z,92.50
2019-03-27T12:35:02.563Z,92.10
2019-03-27T12:37:32.037Z,90.40
2019-03-27T12:40:01.502Z,91.20
2019-03-27T12:42:31.132Z,90.10
2019-03-27T12:45:01.994Z,88.10
2019-03-27T12:47:31.830Z,82.00
2019-03-27T12:50:01.402Z,81.40
2019-03-27T12:52:30.953Z,81.70
2019-03-27T12:55:00.489Z,82.90
2019-03-27T12:57:31.268Z,83.10
2019-03-27T13:00:00.861Z,80.30
2019-03-27T13:02:30.473Z,77.80
2019-03-27T13:04:59.905Z,79.10
2019-03-27T13:07:29.329Z,78.90
2019-03-27T13:09:58.908Z,80.10
2019-03-27T13:12:30.483Z,80.60
2019-03-27T13:14:59.928Z,81.10
2019-03-27T13:17:30.658Z,81.60
2019-03-27T13:20:00.371Z,82.80
2019-03-27T13:22:30.006Z,82.50
2019-03-27T13:24:59.829Z,83.00
2019-03-27T13:27:29.348Z,81.40
2019-03-27T13:30:02.019Z,82.40
2019-03-27T13:32:31.617Z,81.00
2019-03-27T13:35:01.207Z,80.60
2019-03-27T13:37:46.004Z,79.20
2019-03-27T13:40:16.287Z,80.10
2019-03-27T13:42:45.748Z,79.50
2019-03-27T13:45:16.516Z,79.80
2019-03-27T13:47:47.480Z,80.40
2019-03-27T13:50:17.965Z,80.20
2019-03-27T13:52:48.253Z,78.80
2019-03-27T13:55:20.190Z,76.10
2019-03-27T13:57:49.593Z,71.80
2019-03-27T14:00:19.560Z,73.10
2019-03-27T14:02:49.148Z,73.80
2019-03-27T14:05:18.743Z,72.10
2019-03-27T14:07:48.253Z,69.90
2019-03-27T14:10:18.042Z,70.60
2019-03-27T14:12:47.546Z,71.50
2019-03-27T14:15:19.776Z,69.00
2019-03-27T14:17:49.289Z,70.50
2019-03-27T14:20:19.126Z,70.70
2019-03-27T14:22:48.776Z,72.90
2019-03-27T14:25:21.797Z,73.00
2019-03-27T14:27:49.905Z,73.80
2019-03-27T14:30:48.972Z,73.80
2019-03-27T14:33:18.519Z,73.20
2019-03-27T14:35:48.002Z,71.80
2019-03-27T14:38:17.499Z,71.80
2019-03-27T14:40:47.056Z,74.30
2019-03-27T14:43:16.533Z,71.70
2019-03-27T14:45:46.063Z,71.50
2019-03-27T14:48:15.468Z,73.00
2019-03-27T14:50:45.052Z,72.90
2019-03-27T14:53:14.542Z,73.60
2019-03-27T14:55:44.252Z,73.30
2019-03-27T14:58:13.711Z,76.20
2019-03-27T15:00:43.092Z,74.70
2019-03-27T15:03:12.701Z,75.30
2019-03-27T15:05:42.266Z,76.10
2019-03-27T15:08:11.749Z,76.20
2019-03-27T15:10:41.726Z,76.90
2019-03-27T15:13:11.247Z,77.40
2019-03-27T15:15:40.852Z,77.60
2019-03-27T15:18:10.405Z,78.60
2019-03-27T15:20:39.897Z,76.90
2019-03-27T15:23:09.554Z,76.30
2019-03-27T15:25:38.996Z,77.30
2019-03-27T15:28:08.735Z,78.50
2019-03-27T15:30:38.492Z,79.20
2019-03-27T15:33:08.003Z,80.20
2019-03-27T15:35:40.018Z,81.10
2019-03-27T15:38:09.402Z,81.70
2019-03-27T15:40:40.930Z,81.20
2019-03-27T15:43:10.473Z,81.50
2019-03-27T15:45:42.951Z,82.40
2019-03-27T15:48:12.618Z,80.70
2019-03-27T15:50:54.222Z,81.60
2019-03-27T15:53:13.465Z,80.80
2019-03-27T15:55:42.891Z,79.90
2019-03-27T15:58:12.403Z,80.90
2019-03-27T16:00:41.865Z,81.30
2019-03-27T16:03:11.341Z,81.60
2019-03-27T16:05:41.393Z,82.10
2019-03-27T16:08:10.977Z,82.60
2019-03-27T16:10:40.533Z,82.90
2019-03-27T16:13:11.182Z,82.00
2019-03-27T16:15:40.642Z,82.70
2019-03-27T16:18:10.146Z,82.70
2019-03-27T16:20:40.748Z,83.20
2019-03-27T16:23:10.361Z,83.80
2019-03-27T16:25:39.913Z,84.60
2019-03-27T16:28:10.933Z,83.80
2019-03-27T16:30:41.087Z,83.90
2019-03-27T16:33:10.675Z,85.00
2019-03-27T16:35:40.196Z,84.50
2019-03-27T16:38:09.669Z,84.30
2019-03-27T16:40:49.004Z,84.20
2019-03-27T16:43:21.857Z,83.60
2019-03-27T16:45:51.514Z,83.60
2019-03-27T16:48:20.975Z,83.90
2019-03-27T16:50:50.601Z,84.70
2019-03-27T16:53:21.268Z,86.00
2019-03-27T16:55:50.877Z,86.60
2019-03-27T16:58:20.376Z,87.40
2019-03-27T17:00:50.196Z,88.40
2019-03-27T17:03:19.859Z,88.80
2019-03-27T17:05:54.237Z,89.70
2019-03-27T17:08:20.932Z,89.30
2019-03-27T17:10:50.475Z,90.10
2019-03-27T17:13:21.284Z,90.50
2019-03-27T17:15:50.809Z,90.80
2019-03-27T17:18:20.228Z,91.10
2019-03-27T17:20:50.021Z,91.50
2019-03-27T17:23:19.481Z,92.00
2019-03-27T17:25:49.109Z,92.50
2019-03-27T17:28:18.568Z,92.90
2019-03-27T17:30:50.243Z,93.10
2019-03-27T17:33:20.567Z,93.60
2019-03-27T17:35:50.068Z,94.00
2019-03-27T17:38:19.546Z,93.90
2019-03-27T17:40:49.156Z,93.80
2019-03-27T17:43:18.732Z,94.00
2019-03-27T17:45:48.214Z,95.70
2019-03-27T17:48:17.792Z,95.10
2019-03-27T17:50:47.269Z,95.60
2019-03-27T17:53:16.746Z,95.50
2019-03-27T17:55:46.512Z,95.50
2019-03-27T17:58:16.130Z,95.50
2019-03-27T18:00:52.312Z,95.70
2019-03-27T18:03:21.813Z,95.60
2019-03-27T18:05:51.404Z,95.90
2019-03-27T18:08:22.840Z,95.80
2019-03-27T18:10:52.837Z,95.70
2019-03-27T18:13:25.535Z,96.40
2019-03-27T18:15:55.109Z,96.20
2019-03-27T18:18:24.587Z,95.90
2019-03-27T18:20:55.317Z,96.90
2019-03-27T18:23:24.706Z,96.90
2019-03-27T18:25:54.185Z,97.60
2019-03-27T18:28:23.581Z,97.70
2019-03-27T18:30:53.064Z,98.60
2019-03-27T18:33:22.945Z,99.90
2019-03-27T18:35:52.601Z,99.90
2019-03-27T18:38:22.145Z,99.80
2019-03-27T18:40:51.726Z,98.70
2019-03-27T18:43:21.172Z,98.40
2019-03-27T18:45:50.562Z,98.30
2019-03-27T18:48:19.965Z,97.80
2019-03-27T18:50:49.407Z,97.20
2019-03-27T18:53:18.866Z,97.20
2019-03-27T18:55:48.273Z,98.40
2019-03-27T18:58:17.657Z,99.10
2019-03-27T19:00:47.123Z,99.90
2019-03-27T19:03:16.486Z,99.90
2019-03-27T19:05:45.880Z,99.90
2019-03-27T19:08:15.316Z,99.90
2019-03-27T19:10:45.300Z,99.90
2019-03-27T19:13:14.688Z,99.90
2019-03-27T19:15:44.253Z,99.90
2019-03-27T19:18:13.656Z,99.90
2019-03-27T19:20:43.123Z,99.90
2019-03-27T19:23:12.779Z,99.90
2019-03-27T19:25:42.242Z,99.90
2019-03-27T19:28:11.620Z,99.90
2019-03-27T19:30:41.162Z,99.90
2019-03-27T19:33:10.547Z,99.90
2019-03-27T19:35:39.934Z,99.90
2019-03-27T19:38:09.488Z,99.90
2019-03-27T19:40:38.934Z,99.90
2019-03-27T19:43:08.395Z,99.90
2019-03-27T19:45:37.917Z,99.90
2019-03-27T19:48:07.309Z,99.90
2019-03-27T19:50:36.787Z,99.90
2019-03-27T19:53:06.378Z,99.90
2019-03-27T19:55:35.878Z,99.90
2019-03-27T19:58:05.425Z,99.90
2019-03-27T20:00:34.898Z,99.90
2019-03-27T20:03:04.463Z,99.90
2019-03-27T20:05:33.925Z,99.90
2019-03-27T20:08:03.393Z,99.90
2019-03-27T20:10:32.864Z,99.90
2019-03-27T20:13:02.357Z,99.90
2019-03-27T20:15:31.853Z,99.90
2019-03-27T20:18:01.363Z,99.90
2019-03-27T20:20:30.901Z,99.90
2019-03-27T20:23:13.965Z,99.90
2019-03-27T20:25:33.122Z,99.90
2019-03-27T20:28:02.597Z,99.90
2019-03-27T20:30:32.161Z,99.90
2019-03-27T20:33:01.722Z,99.90
2019-03-27T20:35:31.112Z,99.90
2019-03-27T20:38:00.661Z,99.90
2019-03-27T20:40:30.625Z,99.90
2019-03-27T20:43:00.175Z,99.90
2019-03-27T20:45:29.855Z,99.90
2019-03-27T20:47:59.304Z,99.90
2019-03-27T20:50:28.793Z,99.90
2019-03-27T20:52:58.201Z,99.90
2019-03-27T20:55:30.557Z,99.90
2019-03-27T20:57:58.859Z,99.90
2019-03-27T21:00:28.257Z,99.90
2019-03-27T21:02:57.641Z,99.90
2019-03-27T21:05:27.117Z,99.90
2019-03-27T21:07:56.596Z,99.90
2019-03-27T21:10:25.967Z,99.90
2019-03-27T21:12:55.430Z,99.90
2019-03-27T21:15:25.085Z,99.90
2019-03-27T21:17:54.553Z,99.90
2019-03-27T21:20:24.053Z,99.90
2019-03-27T21:22:53.553Z,99.90
2019-03-27T21:25:22.942Z,99.90
2019-03-27T21:27:52.320Z,99.90
2019-03-27T21:30:21.804Z,99.90
2019-03-27T21:32:51.290Z,99.90
2019-03-27T21:35:20.842Z,99.90
2019-03-27T21:37:50.295Z,99.90
2019-03-27T21:40:19.873Z,99.90
2019-03-27T21:42:49.376Z,99.90
2019-03-27T21:45:18.975Z,99.90
2019-03-27T21:47:48.412Z,99.90
2019-03-27T21:50:17.880Z,99.90
2019-03-27T21:52:59.998Z,99.90
2019-03-27T21:55:22.727Z,99.90
2019-03-27T21:57:49.858Z,99.90
2019-03-27T22:00:36.716Z,99.90
2019-03-27T22:03:06.527Z,99.90
2019-03-27T22:05:36.136Z,99.90
2019-03-27T22:08:05.846Z,99.90
2019-03-27T22:10:35.472Z,99.90
2019-03-27T22:13:05.162Z,99.90
2019-03-27T22:15:34.726Z,99.90
2019-03-27T22:18:04.415Z,99.90
2019-03-27T22:20:33.869Z,99.90
2019-03-27T22:23:03.252Z,99.90
2019-03-27T22:25:36.091Z,99.90
2019-03-27T22:28:03.752Z,99.90
2019-03-27T22:30:33.208Z,99.90
2019-03-27T22:33:02.576Z,99.90
2019-03-27T22:35:32.056Z,99.90
2019-03-27T22:38:01.586Z,99.90
2019-03-27T22:40:31.072Z,99.90
2019-03-27T22:43:00.519Z,99.90
2019-03-27T22:45:30.049Z,99.90
2019-03-27T22:47:59.467Z,99.90
2019-03-27T22:50:28.941Z,99.90
2019-03-27T22:52:58.577Z,99.90
2019-03-27T22:55:28.016Z,99.90
2019-03-27T22:57:57.489Z,99.90
2019-03-27T23:00:46.039Z,99.90
2019-03-27T23:03:18.578Z,99.90
2019-03-27T23:05:47.749Z,99.90
2019-03-27T23:08:17.238Z,99.90
2019-03-27T23:10:46.753Z,99.90
2019-03-27T23:13:16.297Z,99.90
2019-03-27T23:15:50.356Z,99.90
2019-03-27T23:18:19.860Z,99.90
2019-03-27T23:20:49.373Z,99.90
2019-03-27T23:23:18.869Z,99.90
2019-03-27T23:25:48.261Z,99.90
2019-03-27T23:28:17.804Z,99.90
2019-03-27T23:30:47.176Z,99.90
2019-03-27T23:33:16.662Z,99.90
2019-03-27T23:35:46.133Z,99.90
2019-03-27T23:38:15.508Z,99.90
2019-03-27T23:40:44.992Z,99.90
2019-03-27T23:43:14.482Z,99.90
2019-03-27T23:45:43.885Z,99.90
2019-03-27T23:48:13.278Z,99.90
2019-03-27T23:50:42.804Z,99.90
2019-03-27T23:53:12.190Z,99.90
2019-03-27T23:55:41.672Z,99.90
2019-03-27T23:58:11.080Z,99.90
